Time;durP1;ratioP1;P1;durP2;ratioP2;P2;SDS_P1;SDS_P2;PMS_P1;PMS_P2;Temp;Humidity;BMP_temperature;BMP_pressure;BME280_temperature;BME280_humidity;BME280_pressure;Samples;Min_cycle;Max_cycle;Signal;HPM_P1;HPM_P2
2022/05/30 00:01:24;;;;;;;7.43;3.10;;;;;;;8.78;85.31;99963.16;5103207;28;21021;-67
2022/05/30 00:03:51;;;;;;;8.60;2.87;;;;;;;8.77;85.49;99967.66;5102685;28;20797;-67
2022/05/30 00:06:21;;;;;;;11.93;2.90;;;;;;;8.77;85.15;99970.31;5103573;28;20516;-67
2022/05/30 00:08:50;;;;;;;7.17;2.43;;;;;;;8.78;85.04;99973.81;5102427;28;20807;-65
2022/05/30 00:11:18;;;;;;;11.00;2.87;;;;;;;8.77;85.46;99966.81;5102661;28;20478;-66
2022/05/30 00:13:45;;;;;;;9.80;3.40;;;;;;;8.79;85.26;99965.69;5103212;28;20483;-67
2022/05/30 00:16:15;;;;;;;5.30;2.83;;;;;;;8.69;85.87;99964.00;5102715;28;20466;-63
2022/05/30 00:18:44;;;;;;;10.97;3.57;;;;;;;8.63;86.38;99960.88;5102465;28;20694;-67
2022/05/30 00:21:11;;;;;;;6.70;3.90;;;;;;;8.64;86.23;99957.22;5102733;28;20483;-66
2022/05/30 00:23:40;;;;;;;7.07;2.97;;;;;;;8.65;86.65;99953.59;5103053;28;20478;-66
2022/05/30 00:26:09;;;;;;;9.83;3.50;;;;;;;8.69;86.33;99950.66;5102720;28;20466;-66
2022/05/30 00:28:36;;;;;;;10.37;3.20;;;;;;;8.62;86.91;99958.34;5102794;28;20457;-68
2022/05/30 00:31:03;;;;;;;6.60;3.20;;;;;;;8.71;86.86;99954.03;5103022;28;20886;-68
2022/05/30 00:33:32;;;;;;;6.47;2.97;;;;;;;8.61;86.93;99951.31;5102523;28;20455;-66
2022/05/30 00:35:58;;;;;;;4.93;3.00;;;;;;;8.59;87.16;99951.50;5101786;28;20546;-68
2022/05/30 00:38:25;;;;;;;8.93;3.20;;;;;;;8.67;87.13;99953.47;5102428;28;20443;-68
2022/05/30 00:40:52;;;;;;;5.17;3.17;;;;;;;8.74;87.05;99953.75;5102901;28;20481;-67
2022/05/30 00:43:26;;;;;;;6.00;3.23;;;;;;;8.73;87.29;99955.59;5102134;28;20488;-68
2022/05/30 00:45:53;;;;;;;5.00;3.23;;;;;;;8.65;87.38;99950.09;5101737;28;20469;-68
2022/05/30 00:48:21;;;;;;;10.20;2.97;;;;;;;8.73;87.49;99952.06;5102695;28;20447;-67
2022/05/30 00:50:51;;;;;;;8.73;3.63;;;;;;;8.76;87.27;99941.16;5102009;28;20687;-66
2022/05/30 00:53:17;;;;;;;7.27;3.10;;;;;;;8.86;86.26;99942.00;5113661;28;20478;-67
2022/05/30 00:55:44;;;;;;;9.20;3.67;;;;;;;8.85;85.31;99937.66;5122925;28;20475;-65
2022/05/30 00:58:13;;;;;;;6.80;3.80;;;;;;;8.56;85.74;99937.56;5122900;28;20448;-66
2022/05/30 01:00:41;;;;;;;7.30;3.30;;;;;;;8.50;86.27;99948.78;5122628;28;20465;-67
2022/05/30 01:08:42;;;;;;;6.13;3.53;;;;;;;8.35;87.63;99938.47;5100623;28;20484;-67
2022/05/30 01:11:09;;;;;;;7.03;3.27;;;;;;;8.32;87.64;99941.38;5121687;28;20503;-68
2022/05/30 01:13:38;;;;;;;12.57;3.03;;;;;;;8.30;87.94;99933.53;5121755;28;20454;-68
2022/05/30 01:16:06;;;;;;;6.00;3.43;;;;;;;8.24;87.94;99941.19;5121708;28;20458;-68
2022/05/30 01:18:36;;;;;;;14.30;3.70;;;;;;;8.21;88.09;99934.34;5121827;28;20476;-67
2022/05/30 01:21:16;;;;;;;7.57;3.00;;;;;;;8.18;88.33;99939.09;5121458;28;20466;-67
2022/05/30 01:23:49;;;;;;;8.80;3.40;;;;;;;8.16;88.30;99931.22;5121780;28;20450;-65
2022/05/30 01:26:29;;;;;;;5.77;3.73;;;;;;;8.14;88.35;99945.63;5122169;28;20473;-67
2022/05/30 01:29:00;;;;;;;10.27;3.53;;;;;;;8.13;88.25;99934.16;5114002;28;20445;-65
2022/05/30 01:31:27;;;;;;;8.30;3.80;;;;;;;8.13;88.11;99939.47;5120470;28;20508;-67
2022/05/30 01:33:53;;;;;;;10.33;3.67;;;;;;;8.05;87.75;99933.97;5122080;28;20453;-67
2022/05/30 01:36:22;;;;;;;7.20;3.47;;;;;;;7.95;87.46;99935.72;5122129;28;20552;-65
2022/05/30 01:38:49;;;;;;;7.83;4.37;;;;;;;7.88;87.51;99936.25;5121413;28;20458;-65
2022/05/30 01:41:16;;;;;;;9.00;4.70;;;;;;;7.76;87.38;99932.00;5121436;28;20509;-66
2022/05/30 01:43:42;;;;;;;6.73;4.00;;;;;;;7.64;88.37;99935.69;5122088;28;20889;-66
2022/05/30 01:46:13;;;;;;;15.10;4.13;;;;;;;7.59;88.31;99933.41;5119898;28;20534;-64
2022/05/30 01:48:40;;;;;;;7.17;3.67;;;;;;;7.49;89.32;99933.31;5121674;28;20449;-66
2022/05/30 01:51:06;;;;;;;6.40;3.97;;;;;;;7.56;89.33;99924.84;5121528;28;20553;-66
2022/05/30 01:53:33;;;;;;;9.13;3.73;;;;;;;7.58;89.36;99920.22;5120706;28;20482;-66
2022/05/30 01:56:00;;;;;;;12.80;4.63;;;;;;;7.51;89.75;99918.06;5121158;28;21099;-67
2022/05/30 01:58:26;;;;;;;6.10;3.90;;;;;;;7.49;89.51;99921.84;5121188;28;20521;-62
2022/05/30 02:00:53;;;;;;;8.90;4.67;;;;;;;7.55;89.37;99923.97;5113580;28;21001;-67
2022/05/30 02:03:21;;;;;;;8.97;4.20;;;;;;;7.52;89.07;99932.25;5112235;28;20471;-67
2022/05/30 02:05:48;;;;;;;7.47;4.10;;;;;;;7.46;89.10;99933.56;5121440;28;20470;-67
2022/05/30 02:08:20;;;;;;;13.57;4.80;;;;;;;7.45;89.35;99926.59;5121712;28;20450;-67
2022/05/30 02:10:47;;;;;;;7.77;4.40;;;;;;;7.43;89.92;99927.66;5119924;28;20948;-67
2022/05/30 02:13:14;;;;;;;6.63;3.90;;;;;;;7.51;89.99;99923.41;5121579;28;20450;-65
2022/05/30 02:18:26;;;;;;;12.20;4.50;;;;;;;7.75;89.58;99924.97;5121313;28;20518;-68
2022/05/30 02:20:53;;;;;;;13.47;5.03;;;;;;;7.79;89.73;99931.69;5120347;28;20469;-67
2022/05/30 02:23:20;;;;;;;6.90;5.00;;;;;;;7.86;89.68;99937.34;5119723;28;20446;-68
2022/05/30 02:25:46;;;;;;;6.77;4.50;;;;;;;7.95;89.71;99933.94;5120580;28;20503;-65
2022/05/30 02:28:13;;;;;;;16.17;4.93;;;;;;;8.03;89.31;99930.59;5121119;28;20445;-67
2022/05/30 02:30:40;;;;;;;10.27;5.53;;;;;;;8.07;89.32;99932.88;5120866;28;20492;-66
2022/05/30 02:38:33;;;;;;;11.20;4.90;;;;;;;8.09;89.49;99940.72;5116586;28;21265;-67
2022/05/30 02:40:59;;;;;;;7.23;5.00;;;;;;;8.07;89.43;99938.19;5120876;28;20846;-67
2022/05/30 02:43:26;;;;;;;11.87;5.50;;;;;;;8.05;89.44;99932.13;5121542;28;20787;-67
2022/05/30 02:45:52;;;;;;;7.70;5.03;;;;;;;7.95;89.30;99935.72;5119606;28;20473;-67
2022/05/30 02:48:19;;;;;;;14.10;5.43;;;;;;;7.99;89.15;99926.53;5120578;28;21045;-65
2022/05/30 02:50:46;;;;;;;13.43;5.13;;;;;;;7.97;89.21;99931.09;5120871;28;20482;-65
2022/05/30 02:53:15;;;;;;;8.47;4.70;;;;;;;7.95;88.99;99933.06;5120873;28;20516;-67
2022/05/30 02:55:43;;;;;;;12.03;5.50;;;;;;;8.00;89.00;99933.50;5120287;28;20470;-67
2022/05/30 02:58:09;;;;;;;11.47;5.63;;;;;;;8.00;88.90;99928.19;5122197;28;20495;-67
2022/05/30 03:00:36;;;;;;;13.30;5.60;;;;;;;8.00;89.03;99939.69;5124598;28;20497;-67
2022/05/30 03:03:03;;;;;;;9.30;5.93;;;;;;;7.97;88.94;99936.44;5125494;28;20475;-65
2022/05/30 03:05:30;;;;;;;10.23;6.10;;;;;;;7.94;89.15;99934.88;5124225;28;20515;-66
2022/05/30 03:07:59;;;;;;;13.93;6.93;;;;;;;8.01;89.52;99937.88;5125641;28;20501;-65
2022/05/30 03:10:27;;;;;;;9.37;5.13;;;;;;;8.01;89.06;99937.88;5124208;27;20493;-66
2022/05/30 03:12:54;;;;;;;9.90;5.60;;;;;;;7.90;89.45;99936.97;5124894;28;20437;-65
2022/05/30 03:15:20;;;;;;;10.20;6.53;;;;;;;7.89;89.59;99937.94;5123449;28;20453;-66
2022/05/30 03:17:48;;;;;;;13.07;6.67;;;;;;;7.94;89.81;99936.72;5124069;28;20442;-66
2022/05/30 03:20:15;;;;;;;11.00;6.10;;;;;;;7.94;89.91;99950.03;5124460;28;20532;-65
2022/05/30 03:22:42;;;;;;;8.63;5.90;;;;;;;8.02;90.04;99940.41;5125046;28;20434;-67
2022/05/30 03:25:09;;;;;;;10.57;7.13;;;;;;;8.08;90.14;99941.69;5123931;28;20511;-67
2022/05/30 03:27:37;;;;;;;12.63;6.50;;;;;;;8.07;90.03;99937.31;5125246;28;20488;-67
2022/05/30 03:30:05;;;;;;;9.40;6.50;;;;;;;8.08;89.66;99945.19;5124842;28;20449;-66
2022/05/30 03:32:32;;;;;;;16.00;7.03;;;;;;;8.16;89.86;99941.88;5123788;28;20468;-67
2022/05/30 03:34:59;;;;;;;10.17;6.30;;;;;;;8.20;89.44;99950.44;5123651;28;20492;-66
2022/05/30 03:37:26;;;;;;;10.17;7.40;;;;;;;8.28;89.58;99950.59;5125020;28;21010;-66
2022/05/30 03:39:52;;;;;;;17.87;6.97;;;;;;;8.33;89.10;99950.22;5123909;28;20496;-66
2022/05/30 03:42:20;;;;;;;11.80;6.40;;;;;;;8.38;89.43;99950.66;5124443;28;20478;-67
2022/05/30 03:44:48;;;;;;;9.80;6.70;;;;;;;8.42;89.36;99947.63;5123472;28;20639;-68
2022/05/30 03:47:15;;;;;;;18.70;7.43;;;;;;;8.44;89.20;99945.66;5122435;28;20473;-67
2022/05/30 03:49:42;;;;;;;16.20;8.83;;;;;;;8.48;89.09;99951.56;5123571;28;20446;-62
2022/05/30 03:52:10;;;;;;;13.27;7.77;;;;;;;8.53;88.88;99949.34;5121326;28;20542;-68
2022/05/30 03:54:37;;;;;;;8.17;6.93;;;;;;;8.50;88.84;99951.44;5097180;28;20462;-67
2022/05/30 03:57:04;;;;;;;13.00;7.50;;;;;;;8.47;88.86;99956.06;5100682;28;20483;-67
2022/05/30 03:59:31;;;;;;;9.47;6.73;;;;;;;8.37;88.84;99959.66;5094067;28;20475;-66
2022/05/30 04:01:59;;;;;;;11.37;6.97;;;;;;;8.41;88.85;99956.56;5101441;28;20483;-68
2022/05/30 04:04:26;;;;;;;10.33;7.03;;;;;;;8.34;88.87;99960.72;5102302;28;20447;-67
2022/05/30 04:06:52;;;;;;;12.40;6.40;;;;;;;8.35;89.34;99962.44;5102273;28;20467;-68
2022/05/30 04:09:21;;;;;;;11.53;7.23;;;;;;;8.47;89.34;99957.88;5094800;28;20451;-68
2022/05/30 04:11:48;;;;;;;13.20;6.50;;;;;;;8.50;89.07;99957.59;5094038;28;21083;-67
2022/05/30 04:14:14;;;;;;;14.50;7.17;;;;;;;8.57;89.21;99956.09;5097309;28;20454;-68
2022/05/30 04:16:41;;;;;;;13.07;7.27;;;;;;;8.63;88.38;99949.41;5094112;28;20488;-66
2022/05/30 04:19:09;;;;;;;11.83;7.13;;;;;;;8.66;88.44;99949.09;5095389;28;20443;-67
2022/05/30 04:21:36;;;;;;;14.40;7.37;;;;;;;8.77;88.69;99948.16;5102124;28;20485;-67
2022/05/30 04:24:03;;;;;;;9.97;7.17;;;;;;;8.90;88.49;99948.75;5101606;28;20451;-66
2022/05/30 04:26:30;;;;;;;11.83;7.70;;;;;;;9.03;88.10;99938.66;5093044;28;20496;-67
2022/05/30 04:28:57;;;;;;;16.63;7.90;;;;;;;9.11;87.99;99940.63;5090052;28;20448;-66
2022/05/30 04:31:23;;;;;;;12.60;7.63;;;;;;;9.26;87.45;99934.91;5100584;28;20541;-67
2022/05/30 04:33:50;;;;;;;12.13;8.63;;;;;;;9.33;87.05;99936.84;5109667;28;20457;-67
2022/05/30 04:36:18;;;;;;;14.03;7.20;;;;;;;9.57;86.38;99946.28;5102672;28;21026;-69
2022/05/30 04:38:45;;;;;;;14.40;7.40;;;;;;;9.75;85.77;99943.72;5102515;28;20455;-66
2022/05/30 04:41:12;;;;;;;14.70;8.50;;;;;;;9.87;85.13;99950.56;5100184;28;20475;-66
2022/05/30 04:43:38;;;;;;;11.03;7.43;;;;;;;9.90;84.39;99946.78;5102501;28;20818;-68
2022/05/30 04:46:07;;;;;;;9.47;7.30;;;;;;;9.95;83.34;99947.22;5117457;28;20539;-68
2022/05/30 04:48:34;;;;;;;16.83;7.50;;;;;;;10.14;82.69;99946.31;5102405;28;20499;-66
2022/05/30 04:51:01;;;;;;;20.77;7.80;;;;;;;10.16;82.75;99955.03;5100404;28;20479;-68
2022/05/30 04:53:29;;;;;;;14.13;8.07;;;;;;;10.81;80.27;99951.53;5112894;28;20986;-68
2022/05/30 04:55:56;;;;;;;10.20;6.67;;;;;;;10.62;79.36;99944.44;5115701;28;20490;-68
2022/05/30 04:58:22;;;;;;;9.53;7.30;;;;;;;10.67;78.67;99955.53;5114089;28;20542;-67
2022/05/30 05:00:49;;;;;;;12.33;6.60;;;;;;;10.44;78.91;99955.09;5118916;28;20492;-67
2022/05/30 05:03:16;;;;;;;9.90;6.23;;;;;;;10.33;79.44;99954.28;5121773;28;20454;-68
2022/05/30 05:05:43;;;;;;;9.80;7.40;;;;;;;10.35;79.26;99954.97;5122133;28;20458;-67
2022/05/30 05:08:33;;;;;;;9.00;5.47;;;;;;;10.46;79.10;99961.13;5121363;28;20537;-66
2022/05/30 05:11:05;;;;;;;9.37;5.90;;;;;;;10.34;79.26;99955.94;5120876;28;20478;-66
2022/05/30 05:13:32;;;;;;;10.57;5.90;;;;;;;10.33;79.21;99959.63;5120690;28;20446;-66
2022/05/30 05:15:59;;;;;;;10.63;5.23;;;;;;;10.21;79.04;99952.75;5120806;28;20530;-68
2022/05/30 05:18:25;;;;;;;7.53;5.70;;;;;;;10.58;78.76;99959.13;5122649;28;20427;-70
2022/05/30 05:20:52;;;;;;;9.10;5.37;;;;;;;10.86;77.12;99960.78;5118348;28;20470;-68
2022/05/30 05:23:19;;;;;;;12.43;5.33;;;;;;;11.04;77.13;99962.66;5120621;28;20446;-69
2022/05/30 05:25:47;;;;;;;9.80;5.73;;;;;;;11.24;75.62;99966.88;5119881;28;20494;-66
2022/05/30 05:28:14;;;;;;;12.50;5.37;;;;;;;11.26;74.52;99964.88;5120724;28;20443;-65
2022/05/30 05:30:41;;;;;;;13.73;4.47;;;;;;;11.27;74.32;99963.91;5120962;28;20462;-68
2022/05/30 05:33:08;;;;;;;10.90;4.80;;;;;;;11.34;74.18;99964.13;5121866;28;20773;-69
2022/05/30 05:35:35;;;;;;;10.90;4.87;;;;;;;11.42;73.55;99966.03;5121255;28;20545;-67
2022/05/30 05:38:03;;;;;;;8.33;4.83;;;;;;;11.58;73.91;99974.22;5120704;28;20450;-65
2022/05/30 05:40:30;;;;;;;14.27;4.47;;;;;;;11.52;73.80;99968.66;5121075;28;20478;-68
2022/05/30 05:42:58;;;;;;;7.20;4.07;;;;;;;11.57;72.39;99974.38;5121980;28;20422;-69
2022/05/30 05:45:25;;;;;;;11.03;4.67;;;;;;;11.73;71.38;99982.53;5119471;28;20467;-69
2022/05/30 05:47:51;;;;;;;9.87;4.47;;;;;;;11.91;71.21;99984.38;5122041;28;20437;-69
2022/05/30 05:50:18;;;;;;;7.87;3.77;;;;;;;12.09;70.35;99979.84;5120850;28;20449;-67
2022/05/30 05:52:45;;;;;;;9.37;4.40;;;;;;;11.76;70.70;99984.09;5121188;28;20522;-69
2022/05/30 05:55:12;;;;;;;11.23;4.27;;;;;;;12.60;69.00;99986.19;5118203;27;20533;-69
2022/05/30 05:57:38;;;;;;;9.40;4.43;;;;;;;12.96;66.31;99980.59;5119589;28;20458;-69
2022/05/30 06:00:08;;;;;;;9.13;4.10;;;;;;;12.39;69.13;99991.06;5119671;28;20461;-66
2022/05/30 06:02:35;;;;;;;8.27;3.73;;;;;;;12.22;71.10;99982.09;5121003;28;20518;-67
2022/05/30 06:05:02;;;;;;;5.67;3.40;;;;;;;12.12;70.10;99989.41;5121394;28;20450;-68
2022/05/30 06:07:29;;;;;;;8.67;3.43;;;;;;;11.85;69.22;99989.34;5119754;28;20474;-69
2022/05/30 06:09:55;;;;;;;9.70;2.77;;;;;;;12.57;67.32;99986.50;5121167;28;20450;-66
2022/05/30 06:12:22;;;;;;;6.63;2.63;;;;;;;12.98;65.44;99981.31;5120787;28;20919;-70
2022/05/30 06:14:49;;;;;;;12.40;2.90;;;;;;;11.98;65.37;99988.16;5119900;28;20473;-66
2022/05/30 06:17:17;;;;;;;5.97;2.70;;;;;;;12.61;66.44;99997.75;5120906;28;20470;-69
2022/05/30 06:19:43;;;;;;;8.73;3.60;;;;;;;12.86;65.80;99987.13;5121354;28;20454;-69
2022/05/30 06:22:10;;;;;;;11.70;3.20;;;;;;;13.90;63.21;99981.25;5119907;28;20465;-70
2022/05/30 06:24:37;;;;;;;11.20;2.50;;;;;;;14.71;60.49;99975.91;5120217;28;20474;-71
2022/05/30 06:27:06;;;;;;;5.03;2.20;;;;;;;15.24;56.58;99978.84;5121110;28;20701;-67
2022/05/30 06:29:33;;;;;;;8.53;2.67;;;;;;;15.13;57.02;99979.25;5120541;28;20458;-69
2022/05/30 06:31:59;;;;;;;6.53;1.60;;;;;;;15.19;55.32;99984.78;5120706;28;20486;-69
2022/05/30 06:34:27;;;;;;;4.80;2.40;;;;;;;15.73;53.31;99985.78;5123636;28;20461;-69
2022/05/30 06:36:54;;;;;;;5.83;2.17;;;;;;;16.05;52.01;99986.53;5124488;28;20466;-69
2022/05/30 06:39:21;;;;;;;4.43;1.80;;;;;;;15.65;52.64;99981.25;5124969;28;20478;-69
2022/05/30 06:41:48;;;;;;;6.63;1.90;;;;;;;15.61;51.67;99979.97;5124853;28;20462;-67
2022/05/30 06:44:15;;;;;;;4.60;2.00;;;;;;;15.60;51.94;99994.44;5123432;28;20663;-69
2022/05/30 06:46:42;;;;;;;5.23;1.70;;;;;;;15.16;53.24;99995.06;5124914;28;20473;-67
2022/05/30 06:49:08;;;;;;;7.77;2.20;;;;;;;15.23;54.04;99999.56;5125442;28;20442;-69
2022/05/30 06:51:37;;;;;;;4.53;1.60;;;;;;;14.11;55.01;99996.03;5124024;28;20508;-65
2022/05/30 06:54:05;;;;;;;9.13;2.17;;;;;;;13.86;56.45;100003.28;5123914;28;20473;-68
2022/05/30 06:56:33;;;;;;;5.13;1.63;;;;;;;14.08;55.79;99999.91;5124231;28;20461;-68
2022/05/30 06:58:59;;;;;;;6.23;1.83;;;;;;;14.42;56.48;99998.00;5124604;28;20911;-69
2022/05/30 07:01:28;;;;;;;6.13;2.10;;;;;;;14.25;56.88;100000.75;5124008;28;20520;-69
2022/05/30 07:03:55;;;;;;;4.63;2.10;;;;;;;14.08;56.76;99999.91;5125139;28;20498;-69
2022/05/30 07:06:24;;;;;;;8.10;1.60;;;;;;;13.81;55.49;99998.41;5123826;28;20522;-66
2022/05/30 07:08:52;;;;;;;7.27;1.93;;;;;;;13.94;56.13;100001.44;5124617;28;20434;-68
2022/05/30 07:11:21;;;;;;;7.03;1.63;;;;;;;14.36;54.17;99998.72;5124287;28;20485;-69
2022/05/30 07:13:49;;;;;;;3.57;1.87;;;;;;;14.11;57.78;100007.66;5123678;28;20520;-69
2022/05/30 07:16:15;;;;;;;3.07;1.10;;;;;;;15.16;54.54;100005.84;5123757;28;20989;-68
2022/05/30 07:18:43;;;;;;;4.47;1.70;;;;;;;14.21;56.36;100015.50;5124674;28;20439;-68
2022/05/30 07:21:13;;;;;;;5.00;2.10;;;;;;;14.43;53.68;100008.59;5123135;28;20525;-67
2022/05/30 07:23:40;;;;;;;8.47;2.10;;;;;;;14.97;54.54;100018.72;5123977;28;20468;-68
2022/05/30 07:26:12;;;;;;;4.23;1.63;;;;;;;14.55;54.14;100013.59;5123822;28;20474;-68
2022/05/30 07:28:39;;;;;;;6.47;2.03;;;;;;;14.22;56.02;100009.16;5124255;28;20506;-67
2022/05/30 07:31:08;;;;;;;6.13;1.93;;;;;;;14.97;53.07;100007.94;5123452;28;20481;-70
2022/05/30 07:33:35;;;;;;;5.33;1.90;;;;;;;14.38;53.99;100004.75;5123998;28;20460;-69
2022/05/30 07:36:05;;;;;;;4.93;1.00;;;;;;;14.46;53.94;100010.94;5123141;28;20474;-69
2022/05/30 07:38:31;;;;;;;6.27;1.90;;;;;;;14.80;53.91;100012.53;5124345;28;20509;-67
2022/05/30 07:40:59;;;;;;;5.63;1.80;;;;;;;16.18;50.54;100021.81;5123468;28;20526;-70
2022/05/30 07:43:27;;;;;;;6.07;1.50;;;;;;;16.63;48.02;100014.59;5123390;28;20437;-66
2022/05/30 07:45:54;;;;;;;6.60;2.07;;;;;;;17.03;47.07;100017.00;5122685;28;20473;-70
2022/05/30 07:48:20;;;;;;;4.10;1.17;;;;;;;16.89;45.08;100021.41;5124452;28;20483;-66
2022/05/30 07:50:47;;;;;;;3.50;1.60;;;;;;;17.02;44.85;100018.06;5122877;28;20843;-69
2022/05/30 07:53:14;;;;;;;3.33;1.37;;;;;;;17.30;45.31;100010.91;5122687;27;20493;-69
2022/05/30 07:55:41;;;;;;;4.80;1.10;;;;;;;17.53;44.26;100015.31;5124149;27;20473;-69
2022/05/30 07:58:07;;;;;;;7.07;1.13;;;;;;;16.11;46.91;100019.00;5123126;28;20510;-67
2022/05/30 08:00:36;;;;;;;2.90;1.03;;;;;;;17.03;44.84;100022.41;5122956;28;20477;-68
2022/05/30 08:03:04;;;;;;;4.23;1.40;;;;;;;17.13;45.18;100028.38;5123305;28;20737;-69
2022/05/30 08:05:32;;;;;;;7.87;1.50;;;;;;;16.52;45.45;100023.16;5122744;28;20477;-69
2022/05/30 08:07:58;;;;;;;4.87;1.80;;;;;;;15.88;47.27;100019.00;5138394;27;20470;-68
2022/05/30 08:10:25;;;;;;;5.80;1.97;;;;;;;15.30;52.00;100020.41;5126121;27;20453;-70
2022/05/30 08:12:52;;;;;;;5.57;1.60;;;;;;;15.96;48.90;100016.25;5137237;27;20466;-70
2022/05/30 08:15:19;;;;;;;2.93;1.47;;;;;;;15.89;47.87;100017.19;5131584;27;20453;-69
2022/05/30 08:17:47;;;;;;;3.93;1.50;;;;;;;16.19;48.44;100018.91;5130949;27;20438;-68
2022/05/30 08:20:16;;;;;;;7.20;1.50;;;;;;;15.57;50.52;100017.22;5121902;28;20466;-70
2022/05/30 08:22:44;;;;;;;5.33;1.57;;;;;;;14.63;52.76;100021.69;5123406;28;20464;-70
2022/05/30 08:25:14;;;;;;;4.37;1.20;;;;;;;15.33;51.28;100020.88;5122418;28;20443;-70
2022/05/30 08:27:41;;;;;;;4.80;1.37;;;;;;;15.35;51.23;100021.53;5123322;28;20458;-68
2022/05/30 08:30:09;;;;;;;3.70;1.73;;;;;;;15.44;49.56;100025.03;5138473;27;20897;-70
2022/05/30 08:32:36;;;;;;;4.33;1.03;;;;;;;15.62;49.63;100024.72;5127077;27;20477;-69
2022/05/30 08:35:06;;;;;;;4.33;1.30;;;;;;;15.40;50.17;100029.94;5142661;27;20449;-67
2022/05/30 08:37:33;;;;;;;6.70;1.77;;;;;;;14.73;50.94;100034.94;5132358;27;20493;-68
2022/05/30 08:42:45;;;;;;;4.77;1.30;;;;;;;13.85;54.43;100039.22;5137364;27;20457;-70
2022/05/30 08:45:14;;;;;;;5.07;1.80;;;;;;;13.55;55.02;100039.69;5124652;27;20498;-69
2022/05/30 08:47:52;;;;;;;4.40;1.60;;;;;;;14.00;53.85;100042.91;5120915;27;20438;-67
2022/05/30 08:50:35;;;;;;;9.60;2.93;;;;;;;13.40;55.17;100044.00;5121645;28;20476;-68
2022/05/30 08:53:30;;;;;;;5.47;1.60;;;;;;;13.47;55.86;100042.38;5129207;27;20489;-68
2022/05/30 08:56:00;;;;;;;5.40;2.07;;;;;;;13.68;56.41;100039.22;5125995;27;20580;-70
2022/05/30 08:58:38;;;;;;;5.67;1.67;;;;;;;13.60;53.89;100041.88;5141887;27;20469;-69
2022/05/30 09:01:09;;;;;;;5.30;1.20;;;;;;;14.02;52.76;100035.53;5135365;27;20465;-69
2022/05/30 09:03:38;;;;;;;5.30;1.47;;;;;;;14.24;52.88;100038.56;5121665;28;20446;-67
2022/05/30 09:06:12;;;;;;;7.30;1.50;;;;;;;14.27;53.10;100039.06;5122143;28;20499;-70
2022/05/30 09:08:40;;;;;;;4.20;1.60;;;;;;;13.63;55.34;100041.56;5125884;27;20445;-67
2022/05/30 09:11:28;;;;;;;7.60;2.10;;;;;;;13.47;54.96;100042.38;5133242;27;20473;-68
2022/05/30 09:13:59;;;;;;;3.23;1.53;;;;;;;14.12;53.16;100036.19;5136320;27;20965;-70
2022/05/30 09:16:35;;;;;;;8.63;2.13;;;;;;;14.55;52.52;100035.97;5123169;27;20473;-69
2022/05/30 09:19:06;;;;;;;4.17;1.50;;;;;;;14.39;53.31;100036.84;5138850;27;20440;-72
2022/05/30 09:21:35;;;;;;;6.87;1.80;;;;;;;14.03;53.38;100039.06;5141915;27;20472;-70
2022/05/30 09:24:04;;;;;;;4.97;1.73;;;;;;;13.74;54.05;100045.75;5141624;27;20449;-71
2022/05/30 09:26:34;;;;;;;2.70;1.40;;;;;;;14.30;52.35;100045.91;5122882;27;20994;-74
2022/05/30 09:29:04;;;;;;;2.87;1.50;;;;;;;14.35;53.08;100038.19;5121986;28;20442;-73
2022/05/30 09:31:38;;;;;;;9.00;2.43;;;;;;;14.63;51.53;100045.91;5129431;27;20461;-71
2022/05/30 09:34:30;;;;;;;6.67;2.40;;;;;;;14.69;51.04;100051.44;5142205;27;20440;-69
2022/05/30 09:36:58;;;;;;;3.10;1.60;;;;;;;14.93;48.76;100044.31;5107258;28;20503;-70
2022/05/30 09:39:25;;;;;;;4.57;1.90;;;;;;;14.76;49.13;100053.44;5130885;27;20502;-72
2022/05/30 09:41:56;;;;;;;3.93;2.33;;;;;;;14.43;50.41;100051.63;5141541;27;20500;-70
2022/05/30 09:44:26;;;;;;;4.50;1.63;;;;;;;14.06;52.28;100046.78;5128984;27;20467;-68
2022/05/30 09:46:54;;;;;;;5.57;1.80;;;;;;;14.17;51.49;100043.75;5127369;27;20462;-72
2022/05/30 09:49:24;;;;;;;4.20;1.70;;;;;;;14.10;52.02;100051.66;5120583;27;20485;-69
2022/05/30 09:51:52;;;;;;;4.90;1.60;;;;;;;14.61;50.82;100048.75;5120829;28;20500;-71
2022/05/30 09:54:34;;;;;;;4.27;1.77;;;;;;;14.58;50.52;100048.22;5131903;27;20563;-71
2022/05/30 09:57:04;;;;;;;2.50;1.37;;;;;;;14.23;51.62;100050.31;5140448;27;20477;-68
2022/05/30 09:59:34;;;;;;;2.67;1.50;;;;;;;14.35;51.90;100053.50;5121793;28;20499;-73
2022/05/30 10:02:02;;;;;;;4.77;2.00;;;;;;;14.13;52.59;100050.50;5129144;27;20471;-70
2022/05/30 10:04:36;;;;;;;6.47;1.63;;;;;;;14.36;51.87;100057.88;5127764;27;20466;-70
2022/05/30 10:07:07;;;;;;;6.33;1.57;;;;;;;14.06;51.33;100057.53;5125370;27;20502;-70
2022/05/30 10:09:35;;;;;;;2.97;1.50;;;;;;;13.65;52.66;100054.81;5120433;28;20454;-70
2022/05/30 10:12:02;;;;;;;6.70;1.37;;;;;;;13.67;52.59;100061.69;5120840;28;20496;-74
2022/05/30 10:14:32;;;;;;;5.67;1.47;;;;;;;13.81;53.89;100056.69;5133747;27;20445;-68
2022/05/30 10:17:11;;;;;;;5.27;1.50;;;;;;;14.40;52.17;100059.19;5141283;27;20469;-74
2022/05/30 10:19:40;;;;;;;3.80;1.63;;;;;;;14.54;53.62;100069.25;5121004;28;20516;-70
2022/05/30 10:28:15;;;;;;;5.07;1.83;;;;;;;13.98;53.25;100074.50;5121444;28;20469;-70
2022/05/30 10:30:48;;;;;;;8.47;2.00;;;;;;;14.37;51.43;100071.13;5135256;28;20507;-70
2022/05/30 10:33:22;;;;;;;4.00;1.20;;;;;;;14.18;53.13;100075.00;5125087;28;20477;-71
2022/05/30 10:35:55;;;;;;;3.17;1.70;;;;;;;14.77;51.38;100072.13;5133395;28;20516;-70
2022/05/30 10:38:29;;;;;;;5.00;1.67;;;;;;;14.85;51.04;100072.06;5120307;28;20446;-67
2022/05/30 10:41:05;;;;;;;3.93;1.50;;;;;;;14.77;50.38;100065.88;5120039;28;20481;-69
2022/05/30 10:43:50;;;;;;;5.37;1.57;;;;;;;14.47;51.07;100070.97;5121423;28;20438;-70
2022/05/30 10:46:20;;;;;;;6.00;1.57;;;;;;;14.73;51.22;100076.16;5129249;28;20473;-70
2022/05/30 10:48:53;;;;;;;5.60;1.43;;;;;;;15.27;48.29;100072.75;5136664;28;20943;-68
2022/05/30 10:51:23;;;;;;;2.30;1.17;;;;;;;14.67;49.64;100072.31;5102568;28;20494;-70
2022/05/30 10:53:54;;;;;;;2.67;1.10;;;;;;;15.70;47.42;100077.75;5120456;28;20547;-68
2022/05/30 10:56:29;;;;;;;4.47;1.70;;;;;;;15.44;48.22;100079.75;5119166;28;20466;-70
2022/05/30 10:59:00;;;;;;;4.40;1.33;;;;;;;14.86;49.82;100076.47;5120604;28;20417;-68
2022/05/30 11:01:42;;;;;;;3.00;1.00;;;;;;;15.14;49.63;100080.59;5120490;28;20501;-69
2022/05/30 11:04:17;;;;;;;4.60;2.60;;;;;;;15.66;47.83;100082.66;5121281;28;20454;-68
2022/05/30 11:06:45;;;;;;;5.37;1.40;;;;;;;15.96;47.18;100085.53;5119680;28;20469;-66
2022/05/30 11:09:19;;;;;;;2.37;1.10;;;;;;;15.19;48.20;100092.50;5120419;28;20430;-69
2022/05/30 11:11:52;;;;;;;1.77;0.90;;;;;;;15.34;48.91;100089.88;5120570;28;20484;-69
2022/05/30 11:14:26;;;;;;;4.23;1.10;;;;;;;15.13;46.18;100078.88;5119617;28;21020;-67
2022/05/30 11:16:55;;;;;;;3.10;1.20;;;;;;;14.42;49.15;100087.59;5138625;28;20521;-69
2022/05/30 11:19:25;;;;;;;3.70;1.33;;;;;;;15.37;46.81;100083.34;5141956;27;20530;-68
2022/05/30 11:21:59;;;;;;;3.40;1.20;;;;;;;15.69;47.60;100087.69;5144282;27;20465;-69
2022/05/30 11:24:26;;;;;;;2.63;1.20;;;;;;;15.66;47.20;100084.50;5144883;27;20440;-69
2022/05/30 11:27:10;;;;;;;4.00;1.00;;;;;;;15.88;46.77;100091.81;5144404;27;20521;-70
2022/05/30 11:29:52;;;;;;;2.20;1.10;;;;;;;15.59;46.79;100087.09;5143618;27;20687;-68
2022/05/30 11:32:34;;;;;;;4.47;1.67;;;;;;;15.99;46.63;100094.09;5127778;27;20507;-69
2022/05/30 11:35:05;;;;;;;4.50;1.10;;;;;;;16.60;44.50;100089.72;5130843;27;20476;-68
2022/05/30 11:37:51;;;;;;;5.53;1.60;;;;;;;16.92;45.52;100091.25;5139014;27;20438;-69
2022/05/30 11:40:24;;;;;;;3.90;1.10;;;;;;;17.05;43.04;100088.75;5143094;27;20449;-69
2022/05/30 11:43:06;;;;;;;2.60;1.10;;;;;;;16.86;42.39;100097.41;5144778;27;20426;-68
2022/05/30 11:45:46;;;;;;;3.20;1.00;;;;;;;15.71;45.56;100099.16;5142623;27;20478;-69
2022/05/30 11:48:17;;;;;;;2.03;0.80;;;;;;;15.28;46.79;100108.63;5144060;27;20433;-69
2022/05/30 11:50:52;;;;;;;1.40;1.00;;;;;;;16.05;44.75;100105.19;5143734;27;20468;-68
2022/05/30 11:53:30;;;;;;;3.00;0.90;;;;;;;15.75;43.24;100100.50;5144017;27;20496;-71
2022/05/30 11:56:01;;;;;;;4.53;1.40;;;;;;;16.46;44.43;100097.59;5142139;27;20479;-69
2022/05/30 11:58:41;;;;;;;2.90;1.60;;;;;;;16.28;43.74;100099.75;5145019;27;20541;-67
2022/05/30 12:01:11;;;;;;;2.60;1.40;;;;;;;16.16;43.01;100099.34;5138433;27;20781;-69
2022/05/30 12:04:08;;;;;;;2.90;1.37;;;;;;;16.18;43.65;100097.34;5133805;27;20848;-69